Terminal Aerodrome Forecast
Issued by NWS

Home | Current Version | Previous Version | Text Only | Print | Product List | Glossary On
Versions: 1 2 3 4 5 6 7 8 9 10 11 12 13 14 15 16 17 18
000
FTAK31 PAFA 161742
TAFAQT
TAF
PAQT 161742Z 1618/1718 25004KT 2SM BR SCT002 OVC040
      TEMPO 1618/1620 1/4SM -FZRA FZFG VV002
     FM162100 27005KT 3SM BR SCT004 BKN015
     FM170200 29005KT P6SM VCFG BKN050
     FM171000 28006KT 2SM BR OVC015=

USA.gov is the U.S. government's official web portal to all federal, state and local government web resources and services.